Rock Tavern, New York
Current Conditions -  °F | °C
As of 2:45 PM on Monday 22 Dec 2014 (Local Time) from KSWF Reporting Station
Haze Haze  
Wind Chill: 34°   Ceiling: 3000
Heat Index: 37°   Visibility: 5mi
Dew Point: 34°   Wind: 5mph
Humidity: 87%   Direction: NA
Pressure: 30.24"   Gusts: NA
Location:  41.47°N, 74.15°W
Report Text: KSWF 221945Z VRB04KT 5SM BR SCT018 OVC030 03/01 A3024
Loading
Personal Weather Stations






























Interactive Weather Map New forecast layout! Learn more

10-Day Weather Forecast

Advertisements
Track Severe Weather on mobile